Time;durP1;ratioP1;P1;durP2;ratioP2;P2;SDS_P1;SDS_P2;PMS_P1;PMS_P2;Temp;Humidity;BMP_temperature;BMP_pressure;BME280_temperature;BME280_humidity;BME280_pressure;Samples;Min_cycle;Max_cycle;Signal;HPM_P1;HPM_P2
2021/12/12 00:03:39;;;;;;;76.53;28.83;;;;;;;2.08;100.00;101975.72;10127970;28;20133;-70
2021/12/12 00:08:39;;;;;;;74.60;27.60;;;;;;;2.06;100.00;101977.81;10113779;28;20102;-70
2021/12/12 00:13:45;;;;;;;74.97;27.25;;;;;;;1.92;100.00;101979.06;10117449;28;20157;-70
2021/12/12 00:18:43;;;;;;;81.57;28.48;;;;;;;1.96;100.00;101977.56;10107694;28;20137;-70
2021/12/12 00:23:40;;;;;;;79.70;28.98;;;;;;;2.04;100.00;101964.59;10132215;28;20081;-70
2021/12/12 00:28:39;;;;;;;79.40;29.80;;;;;;;2.13;100.00;101973.16;10117785;28;20133;-71
2021/12/12 00:33:40;;;;;;;75.03;23.95;;;;;;;2.11;100.00;101969.84;10114034;28;20039;-71
2021/12/12 00:38:37;;;;;;;71.53;28.70;;;;;;;2.14;100.00;101969.41;10121180;28;20058;-71
2021/12/12 00:43:42;;;;;;;90.80;31.58;;;;;;;2.09;100.00;101962.00;10115955;28;20050;-69
2021/12/12 00:48:42;;;;;;;85.95;29.83;;;;;;;2.10;100.00;101958.25;10114632;28;20051;-69
2021/12/12 00:53:41;;;;;;;76.47;30.08;;;;;;;2.08;100.00;101957.66;10120536;28;20051;-70
2021/12/12 00:58:38;;;;;;;89.25;30.73;;;;;;;2.02;100.00;101965.84;10119599;28;20042;-70
2021/12/12 01:03:45;;;;;;;79.05;31.15;;;;;;;1.99;100.00;101966.31;10114900;28;20086;-69
2021/12/12 01:08:45;;;;;;;78.40;29.17;;;;;;;2.13;100.00;101967.75;10111146;28;20408;-69
2021/12/12 01:13:42;;;;;;;83.25;28.85;;;;;;;2.22;100.00;101960.97;10106177;28;20039;-69
2021/12/12 01:18:44;;;;;;;77.30;26.75;;;;;;;2.28;100.00;101959.25;10118109;28;20039;-69
2021/12/12 01:23:49;;;;;;;75.45;29.02;;;;;;;2.30;100.00;101963.34;10124968;28;20066;-70
2021/12/12 01:28:49;;;;;;;75.68;27.65;;;;;;;2.38;100.00;101959.47;10111278;28;20129;-70
2021/12/12 01:33:54;;;;;;;71.85;26.98;;;;;;;2.43;100.00;101969.56;10121017;28;20102;-73
2021/12/12 01:38:57;;;;;;;59.83;24.17;;;;;;;2.48;100.00;101969.69;10116043;28;20130;-72
2021/12/12 01:43:57;;;;;;;;;;;;;;;2.51;100.00;101983.56;10118710;28;20472;-72
2021/12/12 01:49:07;;;;;;;65.03;26.17;;;;;;;2.44;100.00;101973.94;10120322;28;20523;-72
2021/12/12 01:54:07;;;;;;;60.65;23.88;;;;;;;2.49;100.00;101979.47;10117930;28;20480;-72
2021/12/12 01:59:06;;;;;;;55.55;25.13;;;;;;;2.46;100.00;101982.59;10113631;28;20321;-72
2021/12/12 02:04:14;;;;;;;57.35;24.38;;;;;;;2.51;100.00;101978.16;10123162;28;20082;-72
2021/12/12 02:09:12;;;;;;;52.60;22.80;;;;;;;2.56;100.00;101990.16;10103609;28;20047;-73
2021/12/12 02:14:11;;;;;;;52.00;22.48;;;;;;;2.59;100.00;101982.41;10111253;28;20098;-72
2021/12/12 02:19:09;;;;;;;47.53;22.42;;;;;;;2.66;100.00;101969.59;10123914;28;20043;-71
2021/12/12 02:39:49;;;;;;;45.50;21.00;;;;;;;2.67;100.00;101973.97;10108921;28;20050;-71
2021/12/12 02:44:46;;;;;;;43.03;19.45;;;;;;;2.74;100.00;101974.66;10124932;28;20054;-70
2021/12/12 02:54:48;;;;;;;46.13;21.02;;;;;;;2.81;100.00;101962.91;10116260;28;20046;-71
2021/12/12 02:59:49;;;;;;;42.33;20.40;;;;;;;2.82;100.00;101965.38;10107624;28;20054;-71
2021/12/12 03:04:46;;;;;;;43.20;20.05;;;;;;;2.85;100.00;101964.09;10118398;28;20447;-71
2021/12/12 03:09:47;;;;;;;47.40;22.10;;;;;;;2.91;100.00;101963.16;10112361;28;20067;-72
2021/12/12 03:14:46;;;;;;;44.78;21.58;;;;;;;2.91;100.00;101955.03;10120294;28;20492;-71
2021/12/12 03:19:48;;;;;;;47.25;22.20;;;;;;;2.86;100.00;101954.94;10123275;28;20079;-70
2021/12/12 03:24:45;;;;;;;51.20;22.88;;;;;;;2.91;100.00;101957.75;10115877;28;20137;-70
2021/12/12 03:29:44;;;;;;;45.25;21.05;;;;;;;2.87;100.00;101956.56;10115291;28;20125;-71
2021/12/12 03:34:45;;;;;;;42.85;21.13;;;;;;;2.91;100.00;101952.34;10113469;28;20078;-69
2021/12/12 03:39:44;;;;;;;53.03;23.38;;;;;;;2.90;100.00;101961.50;10118630;28;20138;-71
2021/12/12 03:44:42;;;;;;;50.08;22.85;;;;;;;2.88;100.00;101958.22;10127097;28;20140;-69
2021/12/12 03:49:39;;;;;;;52.55;24.15;;;;;;;2.93;100.00;101961.84;10117003;28;20449;-71
2021/12/12 03:54:37;;;;;;;50.28;24.85;;;;;;;2.94;100.00;101968.06;10124468;28;20457;-69
2021/12/12 03:59:34;;;;;;;53.63;23.98;;;;;;;2.91;100.00;101963.16;10114477;28;20128;-72
2021/12/12 04:04:35;;;;;;;57.28;25.08;;;;;;;2.92;100.00;101964.78;10129861;28;20133;-70
2021/12/12 04:09:32;;;;;;;63.50;25.17;;;;;;;2.99;100.00;101973.59;10127239;28;20137;-69
2021/12/12 04:14:28;;;;;;;60.65;25.02;;;;;;;2.92;100.00;101970.19;10119829;28;20096;-71
2021/12/12 04:19:26;;;;;;;58.40;23.88;;;;;;;3.01;100.00;101982.28;10121529;28;20097;-71
2021/12/12 04:24:27;;;;;;;61.05;26.55;;;;;;;2.99;100.00;101987.09;10111589;28;20112;-73
2021/12/12 04:29:28;;;;;;;63.20;26.67;;;;;;;3.02;100.00;101975.00;10118398;28;20496;-71
2021/12/12 04:34:31;;;;;;;60.20;25.85;;;;;;;3.10;100.00;101988.16;10117826;28;20055;-71
2021/12/12 04:39:31;;;;;;;62.97;27.35;;;;;;;3.12;100.00;101981.44;10117898;28;20042;-71
2021/12/12 04:44:32;;;;;;;66.07;27.13;;;;;;;3.09;100.00;101981.94;10118608;28;20097;-71
2021/12/12 04:55:11;;;;;;;65.47;27.63;;;;;;;3.20;100.00;101971.34;10119524;28;20054;-72
2021/12/12 05:00:19;;;;;;;65.32;27.38;;;;;;;3.24;100.00;101977.91;10131257;28;20054;-71
2021/12/12 05:05:22;;;;;;;72.90;29.45;;;;;;;3.27;100.00;101961.22;10102947;28;20134;-71
2021/12/12 05:10:23;;;;;;;71.32;30.08;;;;;;;3.25;100.00;101953.34;10112094;28;20532;-71
2021/12/12 05:15:28;;;;;;;74.35;30.65;;;;;;;3.32;100.00;101953.22;10105012;28;20055;-70
2021/12/12 05:20:31;;;;;;;76.40;31.88;;;;;;;3.29;100.00;101942.88;10102712;28;20054;-72
2021/12/12 05:25:40;;;;;;;61.07;25.53;;;;;;;3.16;100.00;101949.38;10110112;28;20043;-71
2021/12/12 05:30:38;;;;;;;82.65;32.58;;;;;;;3.30;100.00;101945.34;10101208;28;20466;-70
2021/12/12 05:35:39;;;;;;;89.30;35.25;;;;;;;3.36;100.00;101943.56;10096892;28;20633;-71
2021/12/12 05:40:38;;;;;;;85.82;34.28;;;;;;;3.29;100.00;101932.88;10104354;28;20043;-70
2021/12/12 05:45:36;;;;;;;83.28;32.55;;;;;;;3.27;100.00;101940.44;10119286;28;20100;-72
2021/12/12 05:50:33;;;;;;;94.60;33.47;;;;;;;3.35;100.00;101936.53;10119168;28;20126;-71
2021/12/12 05:55:32;;;;;;;80.28;32.70;;;;;;;3.43;100.00;101944.25;10125078;28;20896;-72
2021/12/12 06:00:34;;;;;;;88.03;35.30;;;;;;;3.36;100.00;101954.38;10123906;28;20069;-72
2021/12/12 06:05:32;;;;;;;87.28;32.17;;;;;;;3.46;100.00;101949.19;10128939;28;20190;-71
2021/12/12 06:10:29;;;;;;;81.93;31.35;;;;;;;3.34;100.00;101951.09;10124818;28;20122;-71
2021/12/12 06:15:30;;;;;;;85.60;32.85;;;;;;;3.49;100.00;101951.41;10113659;28;20096;-71
2021/12/12 06:20:28;;;;;;;84.18;31.77;;;;;;;3.55;100.00;101947.75;10122881;28;20573;-70
2021/12/12 06:25:25;;;;;;;94.43;35.50;;;;;;;3.61;100.00;101939.72;10126909;28;20166;-70
2021/12/12 06:30:24;;;;;;;87.57;32.10;;;;;;;3.61;100.00;101926.22;10118149;28;20097;-71
2021/12/12 06:35:21;;;;;;;85.13;32.00;;;;;;;3.67;100.00;101933.38;10119403;28;20130;-70
2021/12/12 06:40:20;;;;;;;77.47;31.40;;;;;;;3.65;100.00;101927.38;10110272;28;20082;-72
2021/12/12 06:45:17;;;;;;;76.25;31.23;;;;;;;3.66;100.00;101931.72;10123533;28;20046;-72
2021/12/12 06:50:14;;;;;;;70.90;29.50;;;;;;;3.53;100.00;101924.72;10124291;28;20077;-72
2021/12/12 06:55:11;;;;;;;79.72;28.15;;;;;;;3.46;100.00;101926.72;10120085;28;20083;-72
2021/12/12 07:00:16;;;;;;;70.07;27.85;;;;;;;3.43;100.00;101922.63;10128835;28;20054;-71
2021/12/12 07:05:16;;;;;;;72.63;25.52;;;;;;;3.51;100.00;101914.13;10121459;28;20058;-70
2021/12/12 07:10:17;;;;;;;63.67;27.83;;;;;;;3.44;100.00;101910.75;10120427;28;20047;-70
2021/12/12 07:15:16;;;;;;;62.70;24.77;;;;;;;3.43;100.00;101900.97;10118272;28;20141;-70
2021/12/12 07:20:13;;;;;;;59.05;25.05;;;;;;;3.44;100.00;101899.94;10128091;28;20054;-70
2021/12/12 07:25:10;;;;;;;66.97;24.55;;;;;;;3.34;100.00;101888.91;10121751;28;20450;-70
2021/12/12 07:30:09;;;;;;;62.65;25.42;;;;;;;3.34;100.00;101886.19;10114035;28;20178;-72
2021/12/12 07:35:10;;;;;;;62.65;24.70;;;;;;;3.38;100.00;101881.97;10129574;28;20485;-71
2021/12/12 07:40:08;;;;;;;50.92;21.77;;;;;;;3.34;100.00;101881.63;10110300;28;20454;-71
2021/12/12 07:45:06;;;;;;;47.33;20.52;;;;;;;3.38;100.00;101876.56;10110538;28;20051;-71
2021/12/12 07:50:06;;;;;;;48.85;22.05;;;;;;;3.41;100.00;101870.66;10110418;28;20082;-71
2021/12/12 07:55:04;;;;;;;55.38;22.92;;;;;;;3.50;100.00;101880.03;10110229;28;20070;-71
2021/12/12 08:00:05;;;;;;;67.93;22.73;;;;;;;3.52;100.00;101877.91;10104766;28;20116;-72
2021/12/12 08:05:04;;;;;;;51.45;22.88;;;;;;;3.52;100.00;101867.09;10115312;28;20137;-71
2021/12/12 08:10:03;;;;;;;51.08;22.30;;;;;;;3.52;100.00;101858.97;10095674;28;20047;-71
2021/12/12 08:15:06;;;;;;;57.25;21.35;;;;;;;3.53;100.00;101867.94;10104010;28;20125;-72
2021/12/12 08:20:05;;;;;;;51.63;22.67;;;;;;;3.53;100.00;101866.03;10091482;28;20126;-71
2021/12/12 08:25:07;;;;;;;51.03;20.13;;;;;;;3.51;100.00;101865.47;10089114;28;20553;-71
2021/12/12 08:30:06;;;;;;;43.63;19.33;;;;;;;3.52;100.00;101845.44;10096767;28;20051;-71
2021/12/12 08:35:06;;;;;;;46.55;18.30;;;;;;;3.47;100.00;101842.66;10100503;28;20050;-71
2021/12/12 08:40:04;;;;;;;46.38;20.10;;;;;;;3.45;100.00;101835.84;10098828;28;20050;-70
2021/12/12 08:45:04;;;;;;;44.47;18.83;;;;;;;3.53;100.00;101813.84;10087937;28;20117;-71
2021/12/12 08:50:12;;;;;;;43.45;18.45;;;;;;;3.47;100.00;101812.91;10094800;28;20038;-68
2021/12/12 08:55:19;;;;;;;45.78;18.67;;;;;;;3.46;100.00;101803.19;10092202;28;20047;-70
2021/12/12 09:00:18;;;;;;;39.65;16.63;;;;;;;3.43;100.00;101809.06;10088906;28;20039;-69
2021/12/12 09:05:20;;;;;;;48.35;18.92;;;;;;;3.47;100.00;101810.22;10102338;28;20078;-71
2021/12/12 09:10:46;;;;;;;40.17;15.73;;;;;;;3.51;100.00;101838.41;10100032;28;20043;-70
2021/12/12 09:15:45;;;;;;;40.78;15.77;;;;;;;3.53;100.00;101828.19;10092942;28;20054;-70
2021/12/12 09:20:50;;;;;;;38.97;15.68;;;;;;;3.51;100.00;101816.78;10090745;28;20046;-69
2021/12/12 09:25:58;;;;;;;35.03;15.40;;;;;;;3.56;100.00;101818.75;10088492;28;20564;-69
2021/12/12 09:30:59;;;;;;;36.10;14.93;;;;;;;3.56;100.00;101819.56;10090636;28;20043;-70
2021/12/12 09:36:09;;;;;;;33.22;14.98;;;;;;;3.65;100.00;101811.06;10096059;28;20047;-70
2021/12/12 09:41:08;;;;;;;31.20;13.32;;;;;;;3.66;100.00;101807.28;10095030;28;20101;-70
2021/12/12 09:46:44;;;;;;;27.55;11.73;;;;;;;3.79;100.00;101812.38;10090418;28;20043;-70
2021/12/12 09:52:09;;;;;;;20.08;9.60;;;;;;;3.75;100.00;101824.75;10092835;28;20463;-70
2021/12/12 09:57:10;;;;;;;82.25;13.80;;;;;;;3.74;100.00;101825.84;10101635;28;20549;-70
2021/12/12 10:02:30;;;;;;;24.75;9.10;;;;;;;3.78;100.00;101829.66;10108635;28;20078;-69
2021/12/12 10:07:44;;;;;;;17.10;8.30;;;;;;;3.84;100.00;101820.59;10108296;28;20083;-71
2021/12/12 10:12:47;;;;;;;18.52;8.57;;;;;;;3.95;100.00;101821.56;10105935;28;20453;-71
2021/12/12 10:17:47;;;;;;;17.27;7.40;;;;;;;3.97;100.00;101798.63;10107393;28;20055;-72
2021/12/12 10:23:05;;;;;;;16.30;7.53;;;;;;;3.98;100.00;101788.59;10105398;28;20089;-71
2021/12/12 10:28:16;;;;;;;17.90;6.28;;;;;;;4.11;100.00;101803.69;10105983;28;20070;-70
2021/12/12 10:33:21;;;;;;;12.32;5.40;;;;;;;4.08;100.00;101804.16;10106520;28;20157;-70
2021/12/12 10:38:24;;;;;;;11.10;4.60;;;;;;;4.10;100.00;101793.91;10102733;28;20145;-71
2021/12/12 10:43:30;;;;;;;10.50;5.07;;;;;;;4.22;100.00;101789.22;10104589;28;20074;-70
2021/12/12 10:48:45;;;;;;;9.63;4.82;;;;;;;4.25;100.00;101796.88;10089298;28;20047;-70
2021/12/12 10:54:01;;;;;;;7.53;4.07;;;;;;;4.25;100.00;101788.75;10098150;28;20552;-74
2021/12/12 10:59:02;;;;;;;7.38;3.67;;;;;;;4.24;100.00;101784.38;10109639;28;20134;-71
2021/12/12 11:04:20;;;;;;;7.57;3.97;;;;;;;4.19;100.00;101776.19;10100388;28;20046;-71
2021/12/12 11:09:30;;;;;;;8.27;3.97;;;;;;;4.26;100.00;101768.72;10109835;28;20042;-71
2021/12/12 11:14:33;;;;;;;6.63;3.50;;;;;;;4.33;100.00;101769.34;10107331;28;20512;-71
2021/12/12 11:19:55;;;;;;;5.57;3.35;;;;;;;4.36;100.00;101779.69;10111762;28;20524;-71
2021/12/12 11:25:17;;;;;;;7.63;3.33;;;;;;;4.40;100.00;101780.81;10107629;28;20082;-69
2021/12/12 11:30:43;;;;;;;91.68;6.38;;;;;;;4.41;100.00;101792.47;10119961;28;20223;-70
2021/12/12 11:35:43;;;;;;;7.03;4.07;;;;;;;4.49;100.00;101777.69;10109518;28;20046;-74
2021/12/12 11:41:06;;;;;;;9.10;4.50;;;;;;;4.52;100.00;101777.97;10102782;28;20505;-70
2021/12/12 11:46:10;;;;;;;8.95;4.50;;;;;;;4.53;100.00;101785.06;10104812;28;20782;-69
2021/12/12 11:51:14;;;;;;;6.72;4.18;;;;;;;4.55;100.00;101782.06;10106643;28;20069;-70
2021/12/12 11:56:23;;;;;;;6.32;4.25;;;;;;;4.61;100.00;101764.81;10097785;28;20090;-71
2021/12/12 12:01:54;;;;;;;6.43;3.95;;;;;;;4.62;100.00;101771.91;10105417;28;20051;-72
2021/12/12 12:07:01;;;;;;;10.10;4.82;;;;;;;4.71;100.00;101758.72;10103280;28;20137;-73
2021/12/12 12:12:23;;;;;;;9.57;5.90;;;;;;;4.67;100.00;101753.00;10095733;28;20493;-73
2021/12/12 12:17:57;;;;;;;9.57;5.55;;;;;;;4.71;100.00;101754.13;10093981;28;20081;-72
2021/12/12 12:23:32;;;;;;;8.90;6.28;;;;;;;4.77;100.00;101763.13;10095740;28;20711;-71
2021/12/12 12:28:35;;;;;;;13.18;6.40;;;;;;;4.76;100.00;101765.03;10092828;28;20509;-71
2021/12/12 12:34:06;;;;;;;13.77;8.07;;;;;;;4.80;100.00;101768.88;10099592;28;20101;-71
2021/12/12 12:39:20;;;;;;;15.65;9.10;;;;;;;4.82;100.00;101766.69;10097631;28;20079;-73
2021/12/12 12:44:50;;;;;;;14.68;8.65;;;;;;;4.88;100.00;101780.34;10117651;28;20054;-72
2021/12/12 12:50:25;;;;;;;12.68;8.55;;;;;;;4.89;100.00;101790.91;10114859;28;20105;-73
2021/12/12 12:55:40;;;;;;;;;;;;;;;4.87;100.00;101781.38;10104327;28;20062;-73
2021/12/12 13:00:38;;;;;;;11.73;8.45;;;;;;;4.90;100.00;101784.44;10102599;28;20307;-71
2021/12/12 13:05:53;;;;;;;12.00;8.43;;;;;;;4.98;100.00;101780.44;10105267;28;20077;-71
2021/12/12 13:10:51;;;;;;;12.52;8.38;;;;;;;5.10;100.00;101777.56;10099559;28;20410;-72
2021/12/12 13:16:05;;;;;;;11.30;7.95;;;;;;;5.11;100.00;101779.22;10100766;28;20050;-72
2021/12/12 13:21:16;;;;;;;12.48;8.98;;;;;;;5.17;100.00;101784.44;10097040;28;20117;-72
2021/12/12 13:26:26;;;;;;;14.00;9.43;;;;;;;5.14;100.00;101794.97;10102335;28;20082;-72
2021/12/12 13:31:35;;;;;;;12.13;8.57;;;;;;;5.25;100.00;101792.13;10099345;28;20146;-71
2021/12/12 13:36:50;;;;;;;11.48;9.05;;;;;;;5.31;100.00;101800.31;10104392;28;20085;-72
2021/12/12 13:41:52;;;;;;;14.07;9.63;;;;;;;5.24;100.00;101801.34;10108962;28;20118;-73
2021/12/12 13:47:26;;;;;;;12.37;9.10;;;;;;;5.34;100.00;101810.63;10099992;28;20047;-72
2021/12/12 13:52:54;;;;;;;39.58;10.35;;;;;;;5.28;100.00;101802.44;10081877;28;20525;-72
2021/12/12 13:57:57;;;;;;;15.02;9.77;;;;;;;5.35;100.00;101817.69;10076320;28;20043;-73
2021/12/12 14:03:00;;;;;;;12.85;8.10;;;;;;;5.35;100.00;101815.00;10095564;28;20047;-73
2021/12/12 14:08:11;;;;;;;12.43;9.07;;;;;;;5.37;100.00;101816.38;10089143;28;20502;-73
2021/12/12 14:13:21;;;;;;;11.43;8.68;;;;;;;5.43;100.00;101820.78;10078691;28;20078;-73
2021/12/12 14:18:19;;;;;;;13.60;9.30;;;;;;;5.50;100.00;101817.88;10098702;28;20683;-72
2021/12/12 14:23:27;;;;;;;12.75;9.80;;;;;;;5.56;100.00;101824.97;10102028;28;20046;-72
2021/12/12 14:28:25;;;;;;;12.10;9.60;;;;;;;5.62;100.00;101828.56;10095454;28;20057;-72
2021/12/12 14:33:29;;;;;;;12.00;9.35;;;;;;;5.59;100.00;101824.47;10102833;28;20074;-72
2021/12/12 14:38:27;;;;;;;14.10;9.40;;;;;;;5.65;100.00;101818.00;10103033;28;20681;-72
2021/12/12 14:43:23;;;;;;;14.45;10.40;;;;;;;5.67;100.00;101826.69;10087864;28;20075;-72
2021/12/12 14:48:31;;;;;;;12.38;9.05;;;;;;;5.69;100.00;101829.97;10094298;28;20142;-72
2021/12/12 14:53:42;;;;;;;12.40;8.85;;;;;;;5.72;100.00;101825.09;10083125;28;20715;-72
2021/12/12 14:58:49;;;;;;;11.75;9.23;;;;;;;5.74;100.00;101842.78;10104740;28;20141;-72
2021/12/12 15:03:51;;;;;;;10.85;8.55;;;;;;;5.81;100.00;101842.56;10100194;28;20106;-72
2021/12/12 15:08:57;;;;;;;12.15;7.43;;;;;;;5.85;100.00;101862.69;10101051;28;20153;-72
2021/12/12 15:13:55;;;;;;;11.15;8.20;;;;;;;5.88;100.00;101862.97;10095199;28;20242;-72
2021/12/12 15:18:53;;;;;;;11.30;8.75;;;;;;;5.90;100.00;101863.53;10119920;28;20070;-72
2021/12/12 15:23:55;;;;;;;12.77;9.23;;;;;;;5.95;100.00;101865.50;10101847;28;20046;-73
2021/12/12 15:28:52;;;;;;;12.30;9.30;;;;;;;5.98;100.00;101862.28;10093395;28;20059;-71
2021/12/12 15:33:52;;;;;;;11.50;8.93;;;;;;;6.02;100.00;101854.44;10103059;28;20078;-71
2021/12/12 15:38:49;;;;;;;12.68;9.23;;;;;;;6.00;100.00;101862.84;10098024;28;20058;-71
2021/12/12 15:43:50;;;;;;;11.88;9.68;;;;;;;5.99;100.00;101860.41;10103929;28;20070;-71
2021/12/12 15:49:09;;;;;;;12.95;10.20;;;;;;;6.06;100.00;101864.53;10117230;28;20134;-71
2021/12/12 15:54:16;;;;;;;13.10;9.88;;;;;;;6.07;100.00;101868.88;10091293;28;20149;-74
2021/12/12 15:59:42;;;;;;;16.00;12.27;;;;;;;6.14;100.00;101873.25;10099311;28;20074;-74
2021/12/12 16:04:41;;;;;;;17.23;12.40;;;;;;;6.17;100.00;101878.16;10086623;28;20074;-73
2021/12/12 16:09:42;;;;;;;14.38;11.80;;;;;;;6.19;100.00;101882.25;10112199;28;20047;-73
2021/12/12 16:14:42;;;;;;;15.82;11.60;;;;;;;6.26;100.00;101892.91;10092194;28;20133;-72
2021/12/12 16:19:50;;;;;;;17.02;12.57;;;;;;;6.31;100.00;101898.38;10083736;28;20054;-73
2021/12/12 16:24:50;;;;;;;18.73;13.95;;;;;;;6.30;100.00;101904.91;10093502;28;20222;-72
2021/12/12 16:29:59;;;;;;;16.95;13.48;;;;;;;6.35;100.00;101904.94;10091907;28;20576;-73
2021/12/12 16:35:00;;;;;;;21.23;14.90;;;;;;;6.36;100.00;101913.88;10102741;28;20101;-74
2021/12/12 16:40:33;;;;;;;18.63;14.18;;;;;;;6.38;100.00;101917.97;10098716;28;20109;-73
2021/12/12 16:45:39;;;;;;;19.08;14.30;;;;;;;6.40;100.00;101929.41;10081212;28;20078;-73
2021/12/12 16:50:45;;;;;;;18.15;13.63;;;;;;;6.42;100.00;101935.41;10099542;28;20600;-73
2021/12/12 16:55:44;;;;;;;20.23;14.90;;;;;;;6.51;100.00;101942.00;10101100;28;20049;-72
2021/12/12 17:00:46;;;;;;;22.15;14.90;;;;;;;6.54;100.00;101943.38;10109542;28;20783;-72
2021/12/12 17:05:47;;;;;;;23.23;15.15;;;;;;;6.61;100.00;101954.03;10091784;28;20050;-73
2021/12/12 17:10:48;;;;;;;19.98;15.40;;;;;;;6.57;100.00;101961.06;10088646;28;20101;-72
2021/12/12 17:15:47;;;;;;;20.65;15.55;;;;;;;6.57;100.00;101964.63;10105317;28;20043;-73
2021/12/12 17:20:48;;;;;;;22.58;17.48;;;;;;;6.65;100.00;101960.59;10102646;28;20615;-74
2021/12/12 17:25:49;;;;;;;23.50;16.80;;;;;;;6.68;100.00;101969.03;10096116;28;20066;-73
2021/12/12 17:31:13;;;;;;;21.88;16.73;;;;;;;6.70;100.00;101968.75;10105248;28;20043;-73
2021/12/12 17:36:14;;;;;;;24.13;17.23;;;;;;;6.76;100.00;101961.47;10094661;28;20424;-71
2021/12/12 17:41:19;;;;;;;27.30;19.88;;;;;;;6.73;100.00;101973.69;10095583;28;20043;-72
2021/12/12 17:46:53;;;;;;;26.02;17.77;;;;;;;6.76;100.00;101972.34;10104252;28;20133;-71
2021/12/12 17:52:28;;;;;;;28.15;18.75;;;;;;;6.77;100.00;101974.78;10086217;28;20050;-73
2021/12/12 17:57:32;;;;;;;34.13;20.88;;;;;;;6.76;100.00;101962.28;10089810;28;20390;-73
2021/12/12 18:02:32;;;;;;;35.17;21.13;;;;;;;6.75;100.00;101974.22;10105573;28;20445;-72
2021/12/12 18:08:11;;;;;;;41.63;23.73;;;;;;;6.76;100.00;101977.78;10083333;28;20062;-75
2021/12/12 18:13:39;;;;;;;40.50;22.20;;;;;;;6.77;100.00;101980.22;10076624;28;20412;-73
2021/12/12 18:19:09;;;;;;;48.60;23.67;;;;;;;6.78;100.00;101992.75;10074994;28;20055;-73
2021/12/12 18:24:12;;;;;;;47.90;26.67;;;;;;;6.86;100.00;101997.69;10103437;28;20078;-70
2021/12/12 18:29:27;;;;;;;48.47;25.20;;;;;;;6.91;100.00;101994.19;10079269;28;20058;-70
2021/12/12 18:34:43;;;;;;;55.88;26.10;;;;;;;6.92;100.00;101993.94;10102698;28;20051;-70
2021/12/12 18:39:47;;;;;;;61.30;27.35;;;;;;;6.97;100.00;102004.03;10082785;28;20052;-70
2021/12/12 18:44:57;;;;;;;67.47;27.98;;;;;;;6.94;100.00;102013.53;10089183;28;20540;-70
2021/12/12 18:50:01;;;;;;;61.67;28.17;;;;;;;6.98;100.00;102019.25;10084414;28;20082;-70
2021/12/12 18:55:08;;;;;;;69.57;28.67;;;;;;;7.00;100.00;102022.53;10091269;28;20142;-70
2021/12/12 19:00:11;;;;;;;68.60;30.40;;;;;;;7.09;100.00;102036.47;10109014;28;20121;-73
2021/12/12 19:05:17;;;;;;;79.85;28.60;;;;;;;7.14;100.00;102033.78;10076604;28;20849;-73
2021/12/12 19:10:15;;;;;;;60.15;27.77;;;;;;;7.13;100.00;102043.03;10078573;28;20043;-73
2021/12/12 19:15:33;;;;;;;66.13;30.50;;;;;;;7.18;100.00;102040.34;10092133;28;20065;-73
2021/12/12 19:20:38;;;;;;;70.85;31.25;;;;;;;7.22;100.00;102046.91;10099979;28;20118;-73
2021/12/12 19:25:35;;;;;;;95.93;31.23;;;;;;;7.21;100.00;102055.31;10108067;28;20277;-73
2021/12/12 19:30:42;;;;;;;99.03;29.08;;;;;;;7.23;100.00;102048.53;10103386;28;20469;-73
2021/12/12 19:35:39;;;;;;;68.57;30.15;;;;;;;7.23;100.00;102059.41;10111122;28;20496;-73
2021/12/12 19:40:42;;;;;;;70.93;29.77;;;;;;;7.24;100.00;102065.66;10102094;28;20050;-73
2021/12/12 19:45:44;;;;;;;101.80;33.00;;;;;;;7.25;100.00;102065.41;10109349;28;20054;-73
2021/12/12 19:50:45;;;;;;;69.57;28.75;;;;;;;7.32;100.00;102070.63;10105877;28;20043;-73
2021/12/12 19:55:48;;;;;;;79.95;30.25;;;;;;;7.30;100.00;102081.75;10102058;28;20046;-73
2021/12/12 20:00:52;;;;;;;70.15;30.33;;;;;;;7.31;100.00;102088.84;10112070;28;20456;-73
2021/12/12 20:06:01;;;;;;;89.30;31.10;;;;;;;7.29;100.00;102085.56;10095226;28;20081;-73
2021/12/12 20:11:01;;;;;;;89.72;30.92;;;;;;;7.33;100.00;102092.13;10100352;28;20051;-73
2021/12/12 20:15:59;;;;;;;99.82;31.63;;;;;;;7.31;100.00;102094.28;10098861;28;20081;-74
2021/12/12 20:20:59;;;;;;;107.22;34.58;;;;;;;7.35;100.00;102094.56;10116589;28;20051;-74
2021/12/12 20:26:02;;;;;;;102.80;34.95;;;;;;;7.41;100.00;102098.16;10103256;28;20142;-73
2021/12/12 20:31:06;;;;;;;99.57;31.02;;;;;;;7.45;100.00;102107.41;10102129;28;20148;-73
2021/12/12 20:36:07;;;;;;;137.75;32.83;;;;;;;7.43;100.00;102112.34;10111882;28;20114;-73
2021/12/12 20:41:12;;;;;;;126.22;32.08;;;;;;;7.44;100.00;102120.22;10104918;28;20089;-73
2021/12/12 20:46:21;;;;;;;104.95;29.80;;;;;;;7.47;100.00;102110.69;10120122;28;20425;-73
2021/12/12 20:51:28;;;;;;;120.32;32.60;;;;;;;7.49;100.00;102117.50;10091775;28;20093;-68
2021/12/12 20:56:28;;;;;;;65.28;28.67;;;;;;;7.53;100.00;102132.25;10091884;28;20049;-69
2021/12/12 21:01:36;;;;;;;74.43;27.65;;;;;;;7.52;100.00;102127.06;10094465;28;20055;-74
2021/12/12 21:06:37;;;;;;;106.90;32.72;;;;;;;7.57;100.00;102124.38;10114604;28;20157;-73
2021/12/12 21:11:39;;;;;;;124.68;31.48;;;;;;;7.56;100.00;102118.09;10105761;28;20121;-72
2021/12/12 21:16:36;;;;;;;110.55;31.05;;;;;;;7.59;100.00;102125.75;10103489;28;20142;-72
2021/12/12 21:21:36;;;;;;;120.97;33.42;;;;;;;7.59;100.00;102120.31;10107516;28;20058;-72
2021/12/12 21:26:35;;;;;;;76.97;29.08;;;;;;;7.63;100.00;102125.22;10112096;28;20722;-73
2021/12/12 21:31:45;;;;;;;99.18;31.17;;;;;;;7.66;100.00;102125.53;10105954;28;20697;-73
2021/12/12 21:37:03;;;;;;;217.05;35.85;;;;;;;7.62;100.00;102131.75;10119758;28;20133;-72
2021/12/12 21:42:03;;;;;;;88.65;29.65;;;;;;;7.66;100.00;102122.81;10129149;28;20088;-73
2021/12/12 21:47:20;;;;;;;122.18;32.58;;;;;;;7.67;100.00;102124.44;10107277;28;20066;-73
2021/12/12 21:52:29;;;;;;;164.00;33.75;;;;;;;7.64;100.00;102140.50;10123439;28;20042;-73
2021/12/12 21:57:26;;;;;;;83.63;29.08;;;;;;;7.75;100.00;102143.00;10122907;28;20097;-72
2021/12/12 22:02:27;;;;;;;141.23;35.45;;;;;;;7.74;100.00;102141.34;10121463;28;20054;-72
2021/12/12 22:07:24;;;;;;;116.07;32.05;;;;;;;7.73;100.00;102150.63;10118812;28;20061;-73
2021/12/12 22:12:24;;;;;;;107.50;30.20;;;;;;;7.75;100.00;102143.00;10113256;28;20042;-73
2021/12/12 22:17:34;;;;;;;93.95;28.80;;;;;;;7.77;100.00;102154.47;10108634;28;20090;-73
2021/12/12 22:22:34;;;;;;;102.07;30.23;;;;;;;7.78;100.00;102150.63;10118947;28;20481;-74
2021/12/12 22:27:36;;;;;;;108.35;28.98;;;;;;;7.82;100.00;102152.81;10099019;28;20043;-74
2021/12/12 22:32:41;;;;;;;123.90;30.33;;;;;;;7.79;100.00;102149.53;10109688;28;20055;-74
2021/12/12 22:37:40;;;;;;;97.25;28.15;;;;;;;7.88;100.00;102158.03;10106841;28;20058;-74
2021/12/12 22:42:41;;;;;;;94.03;29.27;;;;;;;7.92;100.00;102158.34;10109582;28;20077;-74
2021/12/12 22:47:43;;;;;;;109.53;31.30;;;;;;;7.91;100.00;102167.56;10121209;28;20513;-73
2021/12/12 22:52:48;;;;;;;138.97;31.00;;;;;;;7.89;100.00;102169.75;10123056;28;20622;-69
2021/12/12 22:57:50;;;;;;;72.53;29.08;;;;;;;7.95;100.00;102163.25;10123377;28;20674;-70
2021/12/12 23:02:50;;;;;;;98.97;29.23;;;;;;;7.97;100.00;102161.91;10136055;28;20089;-70
2021/12/12 23:07:50;;;;;;;133.02;33.58;;;;;;;7.93;100.00;102170.84;10120802;28;20094;-71
2021/12/12 23:12:52;;;;;;;170.02;32.70;;;;;;;7.87;100.00;102174.66;10126778;28;20054;-72
2021/12/12 23:17:56;;;;;;;233.82;35.83;;;;;;;7.87;100.00;102172.75;10126475;28;20070;-72
2021/12/12 23:22:55;;;;;;;99.70;32.63;;;;;;;7.95;100.00;102174.16;10122514;28;20504;-75